Time;durP1;ratioP1;P1;durP2;ratioP2;P2;SDS_P1;SDS_P2;PMS_P1;PMS_P2;Temp;Humidity;BMP_temperature;BMP_pressure;BME280_temperature;BME280_humidity;BME280_pressure;Samples;Min_cycle;Max_cycle;Signal;HPM_P1;HPM_P2
2021/12/06 00:00:49;;;;;;;3.22;2.60;;;;;;;14.08;60.22;101057.66;5050635;28;20020;-68
2021/12/06 00:03:20;;;;;;;4.72;2.90;;;;;;;14.07;60.18;101058.56;5072204;28;20046;-69
2021/12/06 00:05:45;;;;;;;4.20;2.70;;;;;;;14.04;59.98;101052.53;5055539;28;20078;-70
2021/12/06 00:08:11;;;;;;;5.27;2.80;;;;;;;14.07;59.91;101064.63;5088649;28;20032;-69
2021/12/06 00:10:37;;;;;;;4.60;2.90;;;;;;;14.05;60.12;101050.75;5073146;28;20510;-70
2021/12/06 00:13:03;;;;;;;3.70;2.60;;;;;;;14.03;59.94;101058.66;5073122;28;20428;-70
2021/12/06 00:15:32;;;;;;;5.30;2.87;;;;;;;14.04;59.75;101062.09;5072993;28;20029;-69
2021/12/06 00:17:58;;;;;;;4.68;2.60;;;;;;;14.07;60.07;101063.78;5072876;28;20111;-70
2021/12/06 00:20:24;;;;;;;3.70;2.65;;;;;;;14.07;60.12;101063.78;5073674;28;20040;-70
2021/12/06 00:22:49;;;;;;;2.83;2.53;;;;;;;14.05;60.14;101074.25;5054971;28;20120;-69
2021/12/06 00:25:15;;;;;;;3.63;2.73;;;;;;;14.06;60.03;101073.34;5071675;28;20044;-69
2021/12/06 00:27:41;;;;;;;4.03;2.87;;;;;;;14.04;60.24;101077.75;5071483;28;20039;-70
2021/12/06 00:30:12;;;;;;;3.28;2.90;;;;;;;14.06;59.95;101089.03;5072813;28;20077;-69
2021/12/06 00:32:39;;;;;;;4.97;2.90;;;;;;;14.00;59.85;101079.59;5055183;28;20020;-70
2021/12/06 00:35:05;;;;;;;4.78;2.85;;;;;;;14.03;59.80;101081.25;5088094;28;20044;-70
2021/12/06 00:37:40;;;;;;;3.92;2.75;;;;;;;14.06;59.72;101083.78;5071362;28;20085;-70
2021/12/06 00:40:07;;;;;;;5.00;3.00;;;;;;;14.04;60.10;101083.84;5070276;28;20040;-70
2021/12/06 00:42:34;;;;;;;5.25;2.90;;;;;;;14.04;60.12;101089.06;5074712;28;20028;-70
2021/12/06 00:45:00;;;;;;;;;;;;;;;14.14;59.85;101094.88;5074893;28;20028;-69
2021/12/06 00:47:27;;;;;;;5.20;2.88;;;;;;;14.02;59.98;101095.19;5087332;28;19916;-70
2021/12/06 00:49:52;;;;;;;4.43;2.80;;;;;;;14.04;59.88;101104.72;5094892;28;20415;-70
2021/12/06 00:52:19;;;;;;;4.60;2.80;;;;;;;14.04;60.03;101115.16;5113032;28;20036;-69
2021/12/06 00:54:46;;;;;;;4.40;2.90;;;;;;;14.05;59.99;101116.00;5095003;28;20042;-70
2021/12/06 00:57:12;;;;;;;;;;;;;;;14.15;59.76;101119.25;5095304;28;20080;-70
2021/12/06 00:59:38;;;;;;;;;;;;;;;14.15;59.88;101122.69;5111929;28;19916;-69
2021/12/06 01:02:05;;;;;;;5.05;2.80;;;;;;;14.09;59.68;101135.06;5094706;28;19923;-70
2021/12/06 01:04:31;;;;;;;;;;;;;;;14.16;59.72;101136.63;5095088;28;20028;-70
2021/12/06 01:06:57;;;;;;;5.00;3.00;;;;;;;14.02;59.82;101142.16;5106548;28;20373;-70
2021/12/06 01:09:23;;;;;;;3.85;2.75;;;;;;;13.96;59.89;101137.97;5092325;28;20058;-69
2021/12/06 01:11:49;;;;;;;6.27;2.90;;;;;;;14.02;59.79;101153.47;5092473;28;20048;-70
2021/12/06 01:14:14;;;;;;;4.40;2.90;;;;;;;14.03;60.01;101154.31;5090791;28;20115;-69
2021/12/06 01:16:40;;;;;;;3.67;2.80;;;;;;;14.03;59.89;101146.50;5092874;28;20020;-70
2021/12/06 01:19:05;;;;;;;5.33;3.00;;;;;;;14.02;59.90;101144.78;5092542;28;20086;-70
2021/12/06 01:22:07;;;;;;;5.27;2.90;;;;;;;14.02;60.10;101143.03;5092159;28;20119;-70
2021/12/06 01:24:25;;;;;;;3.05;2.70;;;;;;;13.97;59.87;101137.06;5092383;28;20073;-70
2021/12/06 01:27:11;;;;;;;4.57;2.97;;;;;;;14.00;59.92;101144.84;5092193;28;20042;-70
2021/12/06 01:40:31;;;;;;;5.63;2.80;;;;;;;13.99;59.86;101161.38;5081980;28;20039;-70
2021/12/06 01:42:56;;;;;;;4.30;2.80;;;;;;;13.96;60.02;101163.22;5112597;28;20076;-69
2021/12/06 01:45:22;;;;;;;3.43;2.60;;;;;;;13.98;59.92;101167.50;5111399;28;20024;-68
2021/12/06 01:47:47;;;;;;;4.37;2.97;;;;;;;13.95;60.06;101158.88;5112030;28;20453;-70
2021/12/06 01:50:17;;;;;;;4.60;2.87;;;;;;;13.96;59.96;101164.06;5112800;28;20514;-69
2021/12/06 01:52:48;;;;;;;4.25;2.80;;;;;;;13.96;60.11;101168.44;5094136;28;20031;-68
2021/12/06 01:55:18;;;;;;;3.85;2.80;;;;;;;13.92;59.84;101166.78;5112718;28;20481;-70
2021/12/06 01:57:43;;;;;;;3.38;2.60;;;;;;;13.91;59.79;101165.94;5094079;28;20085;-70
2021/12/06 02:00:17;;;;;;;5.00;3.63;;;;;;;13.92;59.93;101170.25;5114989;28;20039;-69
2021/12/06 02:02:43;;;;;;;3.38;2.80;;;;;;;13.93;60.11;101173.72;5116367;28;20027;-70
2021/12/06 02:05:08;;;;;;;3.87;2.77;;;;;;;13.93;59.80;101174.59;5116231;28;20032;-70
2021/12/06 02:07:34;;;;;;;3.70;2.77;;;;;;;13.96;59.89;101174.50;5076354;28;20047;-70
2021/12/06 02:10:00;;;;;;;4.15;2.88;;;;;;;13.94;59.76;101181.53;5077491;28;20113;-70
2021/12/06 02:12:29;;;;;;;4.90;3.00;;;;;;;13.89;59.84;101170.31;5077757;28;20032;-69
2021/12/06 02:15:02;;;;;;;4.18;3.03;;;;;;;13.93;59.84;101174.59;5094470;28;20036;-70
2021/12/06 02:17:32;;;;;;;3.65;2.80;;;;;;;13.92;59.92;101172.88;5095901;28;20036;-69
2021/12/06 02:20:05;;;;;;;3.53;2.97;;;;;;;13.93;59.82;101185.03;5095344;28;20473;-69
2021/12/06 02:22:33;;;;;;;5.15;3.10;;;;;;;13.93;59.84;101187.63;5095733;28;20031;-69
2021/12/06 02:25:01;;;;;;;3.35;2.92;;;;;;;13.94;59.82;101185.88;5095576;28;20058;-70
2021/12/06 02:27:28;;;;;;;3.20;2.70;;;;;;;13.93;59.97;101197.19;5077381;28;20032;-69
2021/12/06 02:29:56;;;;;;;4.15;2.75;;;;;;;13.90;59.90;101193.75;5060748;28;20032;-70
2021/12/06 02:32:22;;;;;;;3.35;2.80;;;;;;;13.92;59.84;101198.09;5077376;28;20032;-69
2021/12/06 02:34:53;;;;;;;5.00;2.95;;;;;;;13.92;60.10;101204.19;5095182;28;20032;-70
2021/12/06 02:37:24;;;;;;;4.45;2.90;;;;;;;13.92;59.99;101198.97;5094996;28;20067;-69
2021/12/06 02:39:51;;;;;;;4.22;2.92;;;;;;;13.92;59.85;101200.69;5097476;28;20807;-70
2021/12/06 02:42:17;;;;;;;;;;;;;;;14.02;59.55;101207.41;5115927;28;20051;-69
2021/12/06 02:44:44;;;;;;;;;;;;;;;14.03;59.71;101220.44;5116032;28;19951;-70
2021/12/06 02:47:10;;;;;;;4.78;3.00;;;;;;;13.94;59.96;101222.41;5114890;28;19916;-69
2021/12/06 02:49:37;;;;;;;4.25;2.95;;;;;;;13.90;59.75;101211.19;5115668;28;20023;-70
2021/12/06 02:52:04;;;;;;;5.57;2.92;;;;;;;13.93;59.91;101229.38;5114088;28;20397;-69
2021/12/06 02:54:30;;;;;;;4.82;3.00;;;;;;;13.90;60.02;101224.22;5115264;28;20454;-69
2021/12/06 02:59:41;;;;;;;4.10;3.10;;;;;;;13.89;59.72;101233.81;5114987;28;20516;-69
2021/12/06 03:02:13;;;;;;;5.32;3.28;;;;;;;13.86;59.95;101225.19;5097101;28;20043;-70
2021/12/06 03:04:40;;;;;;;4.88;3.00;;;;;;;13.87;59.79;101229.50;5096803;28;20072;-70
2021/12/06 03:07:06;;;;;;;3.92;2.63;;;;;;;13.90;59.70;101234.66;5078838;28;20101;-69
2021/12/06 03:09:36;;;;;;;5.53;2.78;;;;;;;13.88;59.74;101229.50;5091159;28;20024;-70
2021/12/06 03:12:08;;;;;;;4.55;3.00;;;;;;;13.87;59.73;101238.22;5076111;28;20020;-70
2021/12/06 03:14:38;;;;;;;5.07;3.10;;;;;;;13.88;59.75;101236.44;5110237;28;20489;-70
2021/12/06 03:17:06;;;;;;;3.50;3.00;;;;;;;13.87;59.92;101226.91;5076634;28;20028;-69
2021/12/06 03:19:33;;;;;;;4.00;3.00;;;;;;;13.79;59.65;101218.41;5076902;28;20113;-69
2021/12/06 03:21:58;;;;;;;4.53;2.75;;;;;;;13.88;59.92;101231.22;5094318;28;20471;-70
2021/12/06 03:24:24;;;;;;;5.40;3.10;;;;;;;13.82;59.52;101220.94;5094418;28;20036;-70
2021/12/06 03:26:50;;;;;;;5.77;2.90;;;;;;;13.81;59.87;101220.06;5094152;28;20035;-68
2021/12/06 03:29:16;;;;;;;;;;;;;;;13.98;59.49;101237.09;5076455;28;20381;-70
2021/12/06 03:31:42;;;;;;;5.00;3.00;;;;;;;13.92;59.52;101234.63;5094440;28;19916;-70
2021/12/06 03:34:09;;;;;;;5.65;2.92;;;;;;;13.86;59.75;101231.28;5094123;28;20272;-68
2021/12/06 03:36:37;;;;;;;3.65;2.90;;;;;;;13.86;59.80;101226.06;5075872;28;20032;-70
2021/12/06 03:39:08;;;;;;;4.18;2.97;;;;;;;13.86;59.35;101230.41;5076003;28;20060;-70
2021/12/06 03:41:35;;;;;;;4.50;2.97;;;;;;;13.86;59.96;101236.50;5110957;28;20077;-69
2021/12/06 03:44:00;;;;;;;3.80;2.90;;;;;;;13.83;59.97;101225.28;5114050;28;20034;-70
2021/12/06 03:46:28;;;;;;;4.83;3.10;;;;;;;13.87;59.90;101242.56;5113803;28;20059;-69
2021/12/06 03:48:53;;;;;;;4.40;3.00;;;;;;;13.85;59.77;101245.22;5114262;28;20067;-69
2021/12/06 03:51:19;;;;;;;3.70;2.80;;;;;;;13.82;59.81;101242.66;5079064;28;20055;-70
2021/12/06 03:53:45;;;;;;;4.90;3.10;;;;;;;13.81;59.78;101232.28;5114488;28;20492;-70
2021/12/06 03:56:13;;;;;;;4.75;3.00;;;;;;;13.85;59.73;101252.16;5114048;28;20381;-69
2021/12/06 03:58:38;;;;;;;4.75;3.20;;;;;;;13.83;59.70;101239.16;5114064;28;20035;-70
2021/12/06 04:01:04;;;;;;;3.53;2.90;;;;;;;13.81;59.80;101237.50;5114123;28;20385;-70
2021/12/06 04:03:34;;;;;;;4.20;3.10;;;;;;;13.83;59.86;101243.53;5095466;28;20035;-69
2021/12/06 04:06:01;;;;;;;4.47;3.00;;;;;;;13.82;59.83;101244.44;5086992;28;20024;-70
2021/12/06 04:08:26;;;;;;;3.92;2.92;;;;;;;13.82;59.76;101244.44;5089389;28;20045;-70
2021/12/06 04:10:55;;;;;;;3.77;3.10;;;;;;;13.81;59.80;101248.75;5093322;28;20412;-70
2021/12/06 04:13:21;;;;;;;3.65;2.90;;;;;;;13.82;59.71;101258.31;5093452;28;20107;-70
2021/12/06 04:15:47;;;;;;;5.95;3.15;;;;;;;13.73;59.84;101235.91;5093231;28;20492;-70
2021/12/06 04:18:12;;;;;;;4.37;2.80;;;;;;;13.84;59.70;101253.91;5074836;28;20111;-69
2021/12/06 04:20:38;;;;;;;4.63;3.10;;;;;;;13.81;59.71;101250.53;5075176;28;20753;-70
2021/12/06 04:23:06;;;;;;;3.80;2.90;;;;;;;13.82;59.67;101252.25;5092670;28;20031;-70
2021/12/06 04:25:33;;;;;;;4.13;3.00;;;;;;;13.81;59.70;101251.38;5074386;28;20042;-70
2021/12/06 04:28:04;;;;;;;4.78;3.00;;;;;;;13.80;59.80;101243.59;5092516;28;20088;-69
2021/12/06 04:30:30;;;;;;;4.40;3.10;;;;;;;13.84;59.89;101253.09;5102857;28;20400;-69
2021/12/06 04:32:56;;;;;;;4.63;2.90;;;;;;;13.83;59.78;101246.13;5089761;28;20692;-69
2021/12/06 04:35:23;;;;;;;5.17;3.07;;;;;;;13.83;59.84;101248.75;5058054;28;20028;-70
2021/12/06 04:37:48;;;;;;;4.90;3.17;;;;;;;13.82;59.69;101254.84;5074582;28;20074;-69
2021/12/06 04:40:14;;;;;;;4.07;2.90;;;;;;;13.83;59.54;101256.56;5060811;28;20367;-70
2021/12/06 04:42:40;;;;;;;3.27;2.80;;;;;;;13.80;59.76;101256.63;5108061;28;20110;-69
2021/12/06 04:45:07;;;;;;;3.88;2.97;;;;;;;13.78;59.78;101247.97;5092922;28;20189;-70
2021/12/06 04:47:32;;;;;;;4.22;3.13;;;;;;;13.80;59.73;101261.84;5075413;28;20039;-69
2021/12/06 04:49:58;;;;;;;5.40;3.20;;;;;;;13.81;59.78;101263.56;5092980;28;20575;-69
2021/12/06 04:52:23;;;;;;;5.83;3.50;;;;;;;13.79;59.60;101265.34;5111352;28;20531;-70
2021/12/06 04:54:53;;;;;;;3.80;3.00;;;;;;;13.78;59.71;101266.25;5110855;28;20049;-70
2021/12/06 04:57:26;;;;;;;4.57;3.10;;;;;;;13.78;59.74;101261.91;5092557;28;20063;-70
2021/12/06 04:59:57;;;;;;;4.65;3.25;;;;;;;13.77;59.49;101268.00;5112692;28;20035;-68
2021/12/06 05:02:35;;;;;;;4.50;3.20;;;;;;;13.80;59.78;101269.69;5113433;28;20096;-70
2021/12/06 05:05:22;;;;;;;5.70;3.25;;;;;;;13.80;59.81;101275.75;5094808;28;20404;-69
2021/12/06 05:07:53;;;;;;;4.70;2.97;;;;;;;13.78;60.05;101274.94;5073310;28;20048;-70
2021/12/06 05:10:19;;;;;;;5.53;3.33;;;;;;;13.75;59.83;101270.63;5092542;28;20158;-69
2021/12/06 05:12:46;;;;;;;4.10;3.08;;;;;;;13.73;59.79;101266.34;5092473;28;20506;-70
2021/12/06 05:15:12;;;;;;;5.93;3.33;;;;;;;13.69;59.74;101270.78;5074673;28;20020;-70
2021/12/06 05:17:38;;;;;;;4.97;3.30;;;;;;;13.75;59.74;101275.84;5074352;28;20032;-68
2021/12/06 05:20:05;;;;;;;4.20;3.10;;;;;;;13.74;59.65;101281.09;5074333;28;20035;-69
2021/12/06 05:22:32;;;;;;;5.30;3.28;;;;;;;13.74;59.71;101281.09;5108175;28;20350;-68
2021/12/06 05:24:58;;;;;;;5.32;3.60;;;;;;;13.73;59.56;101293.31;5108202;28;20032;-69
2021/12/06 05:27:28;;;;;;;3.70;3.05;;;;;;;13.75;59.64;101288.03;5092336;28;20068;-69
2021/12/06 05:29:58;;;;;;;5.25;3.05;;;;;;;13.73;59.82;101295.91;5092376;28;20478;-70
2021/12/06 05:32:28;;;;;;;4.53;3.22;;;;;;;13.73;59.53;101292.44;5074268;28;20081;-70
2021/12/06 05:35:02;;;;;;;4.85;3.03;;;;;;;13.72;59.66;101290.72;5094660;28;20442;-69
2021/12/06 05:37:28;;;;;;;4.53;3.30;;;;;;;13.71;59.54;101278.56;5078188;28;20047;-68
2021/12/06 05:39:55;;;;;;;4.28;3.10;;;;;;;13.69;59.71;101283.81;5068069;28;20031;-70
2021/12/06 05:42:21;;;;;;;;;;;;;;;13.83;59.40;101290.50;5116083;28;20035;-70
2021/12/06 05:44:47;;;;;;;4.63;3.28;;;;;;;13.75;59.37;101290.66;5116690;28;19935;-69
2021/12/06 05:47:13;;;;;;;5.72;3.40;;;;;;;13.69;59.56;101281.22;5116098;28;20138;-70
2021/12/06 05:49:38;;;;;;;4.20;3.00;;;;;;;13.71;59.61;101281.16;5116567;28;20067;-69
2021/12/06 05:52:04;;;;;;;6.87;3.50;;;;;;;13.72;59.47;101281.16;5098604;28;20086;-70
2021/12/06 05:54:30;;;;;;;5.17;3.13;;;;;;;13.73;59.49;101282.88;5116689;28;20044;-70
2021/12/06 05:56:57;;;;;;;5.53;3.23;;;;;;;13.74;59.87;101291.53;5115755;28;20036;-70
2021/12/06 05:59:23;;;;;;;5.45;3.33;;;;;;;13.74;59.68;101289.78;5098259;28;20114;-68
2021/12/06 06:01:50;;;;;;;5.07;3.40;;;;;;;13.73;59.54;101290.69;5132299;27;20028;-70
2021/12/06 06:04:16;;;;;;;5.43;3.33;;;;;;;13.71;59.50;101294.22;5097890;28;20113;-70
2021/12/06 06:06:42;;;;;;;5.00;3.30;;;;;;;13.71;59.49;101295.09;5084844;28;20071;-69
2021/12/06 06:09:07;;;;;;;4.57;3.13;;;;;;;13.70;59.79;101298.59;5060870;28;20036;-70
2021/12/06 06:11:34;;;;;;;4.97;3.27;;;;;;;13.69;59.60;101309.91;5096007;28;20039;-71
2021/12/06 06:14:04;;;;;;;4.25;3.30;;;;;;;13.66;59.36;101309.09;5095172;28;20031;-70
2021/12/06 06:16:32;;;;;;;7.75;4.63;;;;;;;13.65;58.68;101317.81;5060838;28;20036;-70
2021/12/06 06:18:58;;;;;;;10.85;5.05;;;;;;;13.61;58.72;101319.63;5078178;28;20028;-70
2021/12/06 06:21:24;;;;;;;9.53;4.90;;;;;;;13.57;58.24;101317.97;5076804;28;20473;-70
2021/12/06 06:23:49;;;;;;;14.00;4.67;;;;;;;13.62;58.47;101326.56;5107978;28;20028;-70
2021/12/06 06:26:15;;;;;;;12.33;4.80;;;;;;;13.61;58.26;101331.81;5090285;28;20025;-70
2021/12/06 06:28:40;;;;;;;12.33;5.33;;;;;;;13.56;58.37;101321.47;5087686;28;20469;-68
2021/12/06 06:31:06;;;;;;;10.97;5.00;;;;;;;13.57;58.59;101333.63;5107242;28;20040;-70
2021/12/06 06:33:31;;;;;;;10.20;4.93;;;;;;;13.54;58.39;101323.25;5088977;28;20078;-70
2021/12/06 06:35:57;;;;;;;10.07;5.10;;;;;;;13.52;57.85;101314.59;5086176;28;20028;-70
2021/12/06 06:38:23;;;;;;;8.60;4.63;;;;;;;13.57;58.33;101331.00;5092557;28;20051;-70
2021/12/06 06:40:49;;;;;;;8.55;4.65;;;;;;;13.57;58.32;101325.78;5094403;28;20024;-70
2021/12/06 06:43:15;;;;;;;10.00;4.38;;;;;;;13.56;58.28;101324.94;5075136;28;20044;-68
2021/12/06 06:45:40;;;;;;;8.27;4.32;;;;;;;13.57;58.44;101328.41;5105908;28;20040;-70
2021/12/06 06:48:06;;;;;;;7.37;4.20;;;;;;;13.55;58.59;101324.97;5094188;28;20418;-70
2021/12/06 06:50:32;;;;;;;8.23;4.20;;;;;;;13.55;58.52;101332.78;5094842;28;20059;-70
2021/12/06 06:52:58;;;;;;;6.70;4.10;;;;;;;13.59;58.76;101337.91;5110591;28;20065;-70
2021/12/06 06:55:23;;;;;;;7.88;4.00;;;;;;;13.59;59.02;101329.25;5095095;28;20042;-70
2021/12/06 06:57:51;;;;;;;8.70;4.23;;;;;;;13.55;58.90;101333.66;5093869;28;20020;-70
2021/12/06 07:00:29;;;;;;;8.90;3.92;;;;;;;13.60;58.96;101325.75;5076379;28;20039;-70
2021/12/06 07:02:55;;;;;;;8.05;4.00;;;;;;;13.58;58.84;101338.78;5094738;28;20036;-70
2021/12/06 07:05:21;;;;;;;7.65;3.83;;;;;;;13.56;58.81;101337.13;5093707;28;20035;-70
2021/12/06 07:07:47;;;;;;;6.97;3.83;;;;;;;13.59;58.91;101347.50;5106637;28;20032;-70
2021/12/06 07:10:12;;;;;;;5.80;3.77;;;;;;;13.55;58.67;101338.88;5103685;28;20020;-70
2021/12/06 07:12:47;;;;;;;5.73;3.50;;;;;;;13.59;58.62;101344.88;5094390;28;20473;-69
2021/12/06 07:15:17;;;;;;;5.15;3.70;;;;;;;13.56;58.66;101345.81;5103057;28;20028;-69
2021/12/06 07:17:43;;;;;;;6.60;3.55;;;;;;;13.55;58.86;101344.09;5074189;28;20097;-70
2021/12/06 07:20:11;;;;;;;5.15;3.50;;;;;;;13.56;58.73;101355.38;5103208;28;20123;-70
2021/12/06 07:22:36;;;;;;;8.15;3.70;;;;;;;13.55;58.98;101351.03;5094319;28;20036;-70
2021/12/06 07:25:04;;;;;;;8.70;3.70;;;;;;;13.55;58.60;101351.91;5076295;28;20165;-69
2021/12/06 07:27:30;;;;;;;6.60;3.60;;;;;;;13.55;58.78;101369.28;5089057;28;20385;-70
2021/12/06 07:29:56;;;;;;;6.30;3.70;;;;;;;13.46;58.64;101349.47;5094337;28;20036;-71
2021/12/06 07:32:22;;;;;;;6.80;3.67;;;;;;;13.55;58.69;101366.69;5076154;28;20110;-69
2021/12/06 07:34:49;;;;;;;6.83;4.10;;;;;;;13.54;58.66;101364.97;5091360;28;20119;-70
2021/12/06 07:37:15;;;;;;;6.80;3.60;;;;;;;13.53;58.51;101369.34;5094213;28;20036;-70
2021/12/06 07:39:40;;;;;;;6.37;3.77;;;;;;;13.53;58.65;101371.94;5095408;28;20031;-69
2021/12/06 07:42:06;;;;;;;6.53;3.50;;;;;;;13.52;58.56;101375.44;5096106;28;20034;-70
2021/12/06 07:44:33;;;;;;;6.37;3.87;;;;;;;13.54;58.58;101378.88;5114471;28;20023;-70
2021/12/06 07:46:59;;;;;;;6.68;3.63;;;;;;;13.50;58.53;101374.59;5129662;27;20048;-70
2021/12/06 07:49:24;;;;;;;7.63;3.70;;;;;;;13.54;58.60;101371.06;5113960;28;20046;-70
2021/12/06 07:51:50;;;;;;;6.33;4.03;;;;;;;13.51;58.74;101365.88;5108883;28;20119;-70
2021/12/06 07:54:16;;;;;;;4.83;3.73;;;;;;;13.52;58.67;101358.91;5093964;28;20043;-69
2021/12/06 07:56:42;;;;;;;5.13;3.63;;;;;;;13.53;58.44;101356.28;5075461;28;20054;-70
2021/12/06 07:59:08;;;;;;;6.38;3.70;;;;;;;13.52;58.59;101354.56;5093491;28;20500;-69
2021/12/06 08:01:34;;;;;;;5.27;3.63;;;;;;;13.53;58.69;101352.81;5075645;28;20028;-69
2021/12/06 08:04:00;;;;;;;7.73;4.00;;;;;;;13.53;58.40;101352.81;5058439;28;20032;-70
2021/12/06 08:06:27;;;;;;;6.20;3.80;;;;;;;13.52;58.64;101340.66;5093583;28;20074;-70
2021/12/06 08:08:53;;;;;;;6.75;4.13;;;;;;;13.52;58.56;101338.94;5109643;28;20416;-70
2021/12/06 08:11:21;;;;;;;5.20;3.80;;;;;;;13.52;58.54;101344.16;5109290;28;20405;-69
2021/12/06 08:13:50;;;;;;;7.82;3.70;;;;;;;13.50;58.55;101342.47;5059191;28;20031;-69
2021/12/06 08:16:19;;;;;;;6.25;3.90;;;;;;;13.49;58.70;101338.13;5093643;28;20119;-68
2021/12/06 08:18:45;;;;;;;5.15;3.60;;;;;;;13.48;58.55;101339.03;5093066;28;20497;-70
2021/12/06 08:21:13;;;;;;;6.85;3.80;;;;;;;13.44;58.47;101331.25;5075290;28;20466;-70
2021/12/06 08:23:38;;;;;;;6.07;3.78;;;;;;;13.49;58.46;101335.53;5106449;28;20036;-70
2021/12/06 08:26:06;;;;;;;6.70;4.10;;;;;;;13.49;58.21;101340.75;5074955;28;20508;-70
2021/12/06 08:28:34;;;;;;;6.47;4.13;;;;;;;13.44;58.13;101339.06;5093154;28;20022;-68
2021/12/06 08:30:59;;;;;;;7.45;4.28;;;;;;;13.46;58.25;101346.00;5058853;28;20135;-70
2021/12/06 08:33:25;;;;;;;7.53;4.37;;;;;;;13.44;58.08;101341.69;5058303;28;20115;-70
2021/12/06 08:35:53;;;;;;;7.87;4.53;;;;;;;13.46;58.21;101351.22;5093355;28;20393;-70
2021/12/06 08:38:22;;;;;;;8.48;4.60;;;;;;;13.43;58.15;101353.00;5074679;28;20032;-70
2021/12/06 08:40:49;;;;;;;9.05;5.00;;;;;;;13.39;58.05;101359.19;5088159;28;20078;-69
2021/12/06 08:43:19;;;;;;;9.38;5.05;;;;;;;13.37;57.93;101360.91;5113379;28;20380;-70
2021/12/06 08:46:07;;;;;;;10.20;5.22;;;;;;;13.43;58.10;101373.00;5094985;28;20109;-69
2021/12/06 08:48:35;;;;;;;11.90;5.40;;;;;;;13.39;57.81;101386.94;5113036;28;20043;-70
2021/12/06 08:51:05;;;;;;;13.00;6.28;;;;;;;13.36;57.80;101382.66;5095078;28;20031;-69
2021/12/06 08:53:31;;;;;;;11.30;5.85;;;;;;;13.38;57.98;101385.22;5112807;28;20114;-70
2021/12/06 08:55:57;;;;;;;11.23;5.90;;;;;;;13.37;57.83;101384.38;5129057;27;20119;-70
2021/12/06 08:58:22;;;;;;;12.90;6.15;;;;;;;13.37;57.79;101392.19;5094851;28;20028;-70
2021/12/06 09:00:48;;;;;;;12.07;6.03;;;;;;;13.40;57.96;101388.69;5112377;28;20465;-70
2021/12/06 09:03:14;;;;;;;12.77;5.87;;;;;;;13.32;58.12;101370.56;5094995;28;20550;-67
2021/12/06 09:05:49;;;;;;;12.33;5.90;;;;;;;13.43;58.17;101394.72;5110543;28;20158;-66
2021/12/06 09:08:14;;;;;;;13.50;6.75;;;;;;;13.43;57.76;101397.31;5092389;28;20040;-64
2021/12/06 09:10:40;;;;;;;15.17;7.30;;;;;;;13.43;57.80;101393.88;5092624;28;20027;-67
2021/12/06 09:13:06;;;;;;;15.97;7.20;;;;;;;13.38;57.99;101378.28;5073913;28;20051;-69
2021/12/06 09:15:32;;;;;;;14.85;7.50;;;;;;;13.44;57.78;101388.63;5088060;28;20040;-69
2021/12/06 09:17:58;;;;;;;15.93;7.15;;;;;;;13.42;57.90;101392.16;5091123;28;20089;-69
2021/12/06 09:20:30;;;;;;;20.73;7.30;;;;;;;13.47;57.75;101397.28;5090234;28;20437;-70
2021/12/06 09:22:56;;;;;;;19.25;7.68;;;;;;;13.44;57.62;101391.22;5105452;28;20366;-69
2021/12/06 09:25:22;;;;;;;20.88;7.95;;;;;;;13.41;57.61;101387.81;5087771;28;20459;-69
2021/12/06 09:27:48;;;;;;;20.85;8.27;;;;;;;13.41;57.56;101391.25;5080039;28;20055;-69
2021/12/06 09:30:21;;;;;;;20.77;8.03;;;;;;;13.36;57.58;101392.19;5081178;28;20090;-69
2021/12/06 09:32:47;;;;;;;19.10;8.70;;;;;;;13.38;57.48;101398.25;5081207;28;20763;-70
2021/12/06 09:35:19;;;;;;;19.57;8.43;;;;;;;13.36;57.57;101403.50;5090356;28;20050;-69
2021/12/06 09:37:44;;;;;;;19.88;8.45;;;;;;;13.39;57.51;101392.16;5090243;28;20448;-70
2021/12/06 09:40:11;;;;;;;19.37;8.63;;;;;;;13.36;57.75;101393.09;5087876;28;20024;-69
2021/12/06 09:42:37;;;;;;;18.73;8.70;;;;;;;13.37;57.47;101393.94;5092107;28;20073;-70
2021/12/06 09:45:08;;;;;;;22.00;8.70;;;;;;;13.37;57.42;101389.59;5092154;28;20081;-70
2021/12/06 09:47:34;;;;;;;21.20;8.57;;;;;;;13.35;57.49;101393.09;5092080;28;20055;-69
2021/12/06 09:50:00;;;;;;;19.00;9.00;;;;;;;13.35;57.74;101391.38;5091202;28;20393;-67
2021/12/06 09:52:25;;;;;;;18.87;8.67;;;;;;;13.36;57.37;101392.19;5091480;28;20095;-69
2021/12/06 09:54:51;;;;;;;20.23;8.90;;;;;;;13.34;57.36;101394.00;5089539;28;20370;-70
2021/12/06 09:57:16;;;;;;;19.13;9.23;;;;;;;13.29;57.18;101389.72;5092691;28;20028;-69
2021/12/06 09:59:43;;;;;;;19.87;8.73;;;;;;;13.33;57.17;101398.34;5091870;28;20070;-68
2021/12/06 10:02:16;;;;;;;19.50;9.55;;;;;;;13.32;57.23;101396.63;5089910;28;20066;-67
2021/12/06 10:04:48;;;;;;;19.65;9.15;;;;;;;13.32;57.25;101396.63;5090117;28;20470;-68
2021/12/06 10:07:14;;;;;;;17.17;8.55;;;;;;;13.32;57.42;101390.56;5088878;28;20416;-67
2021/12/06 10:09:41;;;;;;;20.70;9.18;;;;;;;13.30;57.62;101382.75;5089064;28;20032;-69
2021/12/06 10:12:09;;;;;;;18.63;8.93;;;;;;;13.29;57.40;101381.03;5089392;28;20524;-67
2021/12/06 10:14:36;;;;;;;18.60;8.73;;;;;;;13.34;57.41;101376.59;5090437;28;20023;-68
2021/12/06 10:17:06;;;;;;;18.60;9.00;;;;;;;13.34;57.33;101380.97;5091703;28;20470;-69
2021/12/06 10:19:32;;;;;;;18.98;8.90;;;;;;;13.29;57.31;101358.44;5091594;28;20051;-68
2021/12/06 10:21:58;;;;;;;;;;;;;;;13.43;57.36;101363.41;5094568;28;20021;-70
2021/12/06 10:24:26;;;;;;;19.17;8.50;;;;;;;13.34;57.22;101349.69;5096231;28;19912;-69
2021/12/06 10:27:11;;;;;;;18.27;8.43;;;;;;;13.37;57.55;101353.09;5096291;28;20433;-69
2021/12/06 10:29:44;;;;;;;22.85;10.50;;;;;;;13.29;56.70;101345.41;5096170;28;20024;-69
2021/12/06 10:32:27;;;;;;;23.95;11.38;;;;;;;13.31;56.80;101347.13;5095871;28;20454;-69
2021/12/06 10:34:56;;;;;;;26.35;12.02;;;;;;;13.21;56.99;101343.81;5096514;28;20032;-69
2021/12/06 10:37:45;;;;;;;25.67;11.90;;;;;;;13.23;57.00;101339.44;5092225;28;20028;-68
2021/12/06 10:40:22;;;;;;;26.77;12.48;;;;;;;13.11;56.94;101341.38;5092609;28;20037;-69
2021/12/06 10:42:49;;;;;;;28.20;13.27;;;;;;;13.11;56.62;101345.75;5092008;28;20024;-70
2021/12/06 10:45:14;;;;;;;28.55;14.43;;;;;;;13.13;56.63;101360.47;5096314;28;20035;-69
2021/12/06 10:47:41;;;;;;;28.47;14.73;;;;;;;13.09;56.42;101344.91;5095642;28;20480;-69
2021/12/06 10:50:11;;;;;;;29.42;15.32;;;;;;;13.02;56.27;101331.13;5077833;28;20024;-69
2021/12/06 10:52:52;;;;;;;31.05;15.95;;;;;;;13.01;56.45;101320.72;5095821;28;20112;-69
2021/12/06 10:55:18;;;;;;;30.45;15.20;;;;;;;12.95;56.14;101312.16;5095493;28;20123;-69
2021/12/06 10:58:06;;;;;;;31.75;16.20;;;;;;;12.98;56.21;101309.50;5095760;28;20112;-68
2021/12/06 11:00:54;;;;;;;33.17;16.77;;;;;;;12.91;56.01;101297.44;5095138;28;20020;-66
2021/12/06 11:03:37;;;;;;;31.98;17.55;;;;;;;12.87;55.46;101285.38;5095415;28;20036;-69
2021/12/06 11:06:08;;;;;;;32.63;16.88;;;;;;;12.76;55.01;101276.91;5095543;28;20417;-70
2021/12/06 11:08:35;;;;;;;32.17;16.75;;;;;;;12.75;55.06;101286.44;5095773;28;20031;-70
2021/12/06 11:11:11;;;;;;;33.67;17.23;;;;;;;12.76;55.22;101279.50;5095193;28;20032;-71
2021/12/06 11:13:40;;;;;;;33.38;17.70;;;;;;;12.74;55.12;101294.28;5094727;28;20114;-70
2021/12/06 11:16:19;;;;;;;30.02;16.58;;;;;;;12.74;55.07;101286.47;5095297;28;20043;-71
2021/12/06 11:18:48;;;;;;;31.65;16.42;;;;;;;12.71;55.47;101274.38;5095761;28;20047;-71
2021/12/06 11:21:21;;;;;;;30.17;15.98;;;;;;;12.74;55.41;101274.28;5095156;28;20028;-70
2021/12/06 11:24:07;;;;;;;30.23;16.13;;;;;;;12.82;55.61;101271.56;5095301;28;20040;-71
2021/12/06 11:26:36;;;;;;;27.88;14.88;;;;;;;12.83;55.20;101263.72;5093137;28;20058;-70
2021/12/06 11:29:24;;;;;;;28.98;15.40;;;;;;;12.86;55.54;101248.91;5089192;28;20062;-69
2021/12/06 11:31:54;;;;;;;27.50;14.68;;;;;;;12.83;55.13;101247.22;5089470;28;20082;-71
2021/12/06 11:34:20;;;;;;;27.60;14.55;;;;;;;12.82;55.35;101249.00;5087695;28;20088;-69
2021/12/06 11:36:46;;;;;;;27.60;14.37;;;;;;;12.87;55.08;101251.50;5089523;28;20100;-71
2021/12/06 11:39:16;;;;;;;26.70;14.43;;;;;;;12.83;55.19;101247.22;5087788;28;20032;-70
2021/12/06 11:41:48;;;;;;;25.98;14.05;;;;;;;12.85;54.88;101255.00;5092327;28;20031;-71